sensor_id;sensor_type;location;lat;lon;timestamp;P1;durP1;ratioP1;P2;durP2;ratioP2
36373;SDS011;22399;51.346;12.372;2023-02-28T00:01:47;4.10;;;1.88;;
36373;SDS011;22399;51.346;12.372;2023-02-28T00:04:15;3.17;;;1.42;;
36373;SDS011;22399;51.346;12.372;2023-02-28T00:06:45;3.50;;;1.67;;
36373;SDS011;22399;51.346;12.372;2023-02-28T00:09:14;5.43;;;2.28;;
36373;SDS011;22399;51.346;12.372;2023-02-28T00:11:42;3.88;;;2.05;;
36373;SDS011;22399;51.346;12.372;2023-02-28T00:14:11;5.85;;;1.73;;
36373;SDS011;22399;51.346;12.372;2023-02-28T00:16:40;4.40;;;1.80;;
36373;SDS011;22399;51.346;12.372;2023-02-28T00:19:08;4.55;;;1.75;;
36373;SDS011;22399;51.346;12.372;2023-02-28T00:21:40;4.78;;;1.95;;
36373;SDS011;22399;51.346;12.372;2023-02-28T00:24:10;5.78;;;1.73;;
36373;SDS011;22399;51.346;12.372;2023-02-28T00:26:38;6.03;;;2.17;;
36373;SDS011;22399;51.346;12.372;2023-02-28T00:29:07;8.18;;;1.85;;
36373;SDS011;22399;51.346;12.372;2023-02-28T00:31:35;4.70;;;1.95;;
36373;SDS011;22399;51.346;12.372;2023-02-28T00:34:03;5.35;;;1.70;;
36373;SDS011;22399;51.346;12.372;2023-02-28T00:36:32;12.85;;;2.15;;
36373;SDS011;22399;51.346;12.372;2023-02-28T00:39:03;4.05;;;1.73;;
36373;SDS011;22399;51.346;12.372;2023-02-28T00:41:33;4.65;;;2.03;;
36373;SDS011;22399;51.346;12.372;2023-02-28T00:44:03;4.70;;;1.98;;
36373;SDS011;22399;51.346;12.372;2023-02-28T00:46:32;8.65;;;2.22;;
36373;SDS011;22399;51.346;12.372;2023-02-28T00:49:00;1.95;;;1.48;;
36373;SDS011;22399;51.346;12.372;2023-02-28T00:51:28;3.47;;;1.70;;
36373;SDS011;22399;51.346;12.372;2023-02-28T00:53:57;3.72;;;1.70;;
36373;SDS011;22399;51.346;12.372;2023-02-28T00:56:25;2.00;;;1.33;;
36373;SDS011;22399;51.346;12.372;2023-02-28T00:58:55;4.53;;;2.28;;
36373;SDS011;22399;51.346;12.372;2023-02-28T01:01:23;9.48;;;2.63;;
36373;SDS011;22399;51.346;12.372;2023-02-28T01:03:51;3.85;;;1.98;;
36373;SDS011;22399;51.346;12.372;2023-02-28T01:06:20;6.53;;;1.60;;
36373;SDS011;22399;51.346;12.372;2023-02-28T01:08:48;2.22;;;1.13;;
36373;SDS011;22399;51.346;12.372;2023-02-28T01:11:17;4.15;;;1.92;;
36373;SDS011;22399;51.346;12.372;2023-02-28T01:13:45;3.72;;;1.80;;
36373;SDS011;22399;51.346;12.372;2023-02-28T01:16:15;5.10;;;2.15;;
36373;SDS011;22399;51.346;12.372;2023-02-28T01:18:44;4.93;;;2.10;;
36373;SDS011;22399;51.346;12.372;2023-02-28T01:21:14;3.58;;;1.65;;
36373;SDS011;22399;51.346;12.372;2023-02-28T01:23:44;5.97;;;1.48;;
36373;SDS011;22399;51.346;12.372;2023-02-28T01:26:13;3.78;;;1.92;;
36373;SDS011;22399;51.346;12.372;2023-02-28T01:28:43;4.55;;;2.05;;
36373;SDS011;22399;51.346;12.372;2023-02-28T01:31:11;6.68;;;2.60;;
36373;SDS011;22399;51.346;12.372;2023-02-28T01:33:42;7.57;;;1.77;;
36373;SDS011;22399;51.346;12.372;2023-02-28T01:36:11;5.30;;;1.58;;
36373;SDS011;22399;51.346;12.372;2023-02-28T01:38:41;5.55;;;1.42;;
36373;SDS011;22399;51.346;12.372;2023-02-28T01:41:12;8.43;;;2.03;;
36373;SDS011;22399;51.346;12.372;2023-02-28T01:43:58;2.88;;;1.40;;
36373;SDS011;22399;51.346;12.372;2023-02-28T01:46:31;5.80;;;2.08;;
36373;SDS011;22399;51.346;12.372;2023-02-28T01:49:03;4.15;;;1.55;;
36373;SDS011;22399;51.346;12.372;2023-02-28T01:51:35;1.27;;;1.17;;
36373;SDS011;22399;51.346;12.372;2023-02-28T01:54:07;8.48;;;1.77;;
36373;SDS011;22399;51.346;12.372;2023-02-28T01:56:42;7.32;;;2.03;;
36373;SDS011;22399;51.346;12.372;2023-02-28T01:59:14;2.85;;;1.33;;
36373;SDS011;22399;51.346;12.372;2023-02-28T02:01:46;6.70;;;1.65;;
36373;SDS011;22399;51.346;12.372;2023-02-28T02:04:19;7.63;;;2.60;;
36373;SDS011;22399;51.346;12.372;2023-02-28T02:06:49;4.70;;;2.20;;
36373;SDS011;22399;51.346;12.372;2023-02-28T02:09:18;6.55;;;2.08;;
36373;SDS011;22399;51.346;12.372;2023-02-28T02:11:46;4.78;;;2.10;;
36373;SDS011;22399;51.346;12.372;2023-02-28T02:17:12;4.30;;;1.60;;
36373;SDS011;22399;51.346;12.372;2023-02-28T02:23:03;9.63;;;1.60;;
36373;SDS011;22399;51.346;12.372;2023-02-28T02:25:59;7.40;;;1.67;;
36373;SDS011;22399;51.346;12.372;2023-02-28T02:28:49;6.43;;;1.70;;
36373;SDS011;22399;51.346;12.372;2023-02-28T02:31:48;2.25;;;1.33;;
36373;SDS011;22399;51.346;12.372;2023-02-28T02:37:23;2.13;;;1.80;;
36373;SDS011;22399;51.346;12.372;2023-02-28T02:40:00;6.55;;;1.90;;
36373;SDS011;22399;51.346;12.372;2023-02-28T02:42:36;4.50;;;1.25;;
36373;SDS011;22399;51.346;12.372;2023-02-28T02:45:10;16.20;;;2.55;;
36373;SDS011;22399;51.346;12.372;2023-02-28T02:47:43;3.28;;;1.50;;
36373;SDS011;22399;51.346;12.372;2023-02-28T02:50:14;8.23;;;2.03;;
36373;SDS011;22399;51.346;12.372;2023-02-28T02:52:48;8.55;;;3.13;;
36373;SDS011;22399;51.346;12.372;2023-02-28T02:55:21;5.97;;;2.37;;
36373;SDS011;22399;51.346;12.372;2023-02-28T02:57:51;10.35;;;2.22;;
36373;SDS011;22399;51.346;12.372;2023-02-28T03:00:24;3.33;;;1.50;;
36373;SDS011;22399;51.346;12.372;2023-02-28T03:02:57;12.75;;;2.45;;
36373;SDS011;22399;51.346;12.372;2023-02-28T03:05:28;6.05;;;1.48;;
36373;SDS011;22399;51.346;12.372;2023-02-28T03:08:03;3.30;;;1.10;;
36373;SDS011;22399;51.346;12.372;2023-02-28T03:10:35;1.65;;;1.55;;
36373;SDS011;22399;51.346;12.372;2023-02-28T03:16:09;3.03;;;1.65;;
36373;SDS011;22399;51.346;12.372;2023-02-28T03:18:52;7.60;;;1.90;;
36373;SDS011;22399;51.346;12.372;2023-02-28T03:21:30;3.80;;;2.28;;
36373;SDS011;22399;51.346;12.372;2023-02-28T03:24:03;5.85;;;2.08;;
36373;SDS011;22399;51.346;12.372;2023-02-28T03:26:38;2.03;;;1.50;;
36373;SDS011;22399;51.346;12.372;2023-02-28T03:29:11;7.03;;;2.67;;
36373;SDS011;22399;51.346;12.372;2023-02-28T03:31:44;2.67;;;1.42;;
36373;SDS011;22399;51.346;12.372;2023-02-28T03:34:21;6.63;;;2.53;;
36373;SDS011;22399;51.346;12.372;2023-02-28T03:36:55;8.13;;;1.38;;
36373;SDS011;22399;51.346;12.372;2023-02-28T03:39:27;4.97;;;1.73;;
36373;SDS011;22399;51.346;12.372;2023-02-28T03:42:02;5.38;;;2.17;;
36373;SDS011;22399;51.346;12.372;2023-02-28T03:44:35;5.15;;;1.48;;
36373;SDS011;22399;51.346;12.372;2023-02-28T03:47:09;4.82;;;1.65;;
36373;SDS011;22399;51.346;12.372;2023-02-28T03:49:42;5.57;;;1.63;;
36373;SDS011;22399;51.346;12.372;2023-02-28T03:52:16;4.25;;;1.42;;
36373;SDS011;22399;51.346;12.372;2023-02-28T03:54:50;7.57;;;2.65;;
36373;SDS011;22399;51.346;12.372;2023-02-28T03:57:23;6.30;;;1.77;;
36373;SDS011;22399;51.346;12.372;2023-02-28T03:59:59;3.38;;;1.63;;
36373;SDS011;22399;51.346;12.372;2023-02-28T04:02:37;6.03;;;1.98;;
36373;SDS011;22399;51.346;12.372;2023-02-28T04:05:07;10.32;;;3.85;;
36373;SDS011;22399;51.346;12.372;2023-02-28T04:07:37;3.38;;;1.60;;
36373;SDS011;22399;51.346;12.372;2023-02-28T04:10:06;4.85;;;2.22;;
36373;SDS011;22399;51.346;12.372;2023-02-28T04:12:36;8.02;;;2.50;;
36373;SDS011;22399;51.346;12.372;2023-02-28T04:15:05;3.20;;;1.95;;
36373;SDS011;22399;51.346;12.372;2023-02-28T04:17:34;3.67;;;1.90;;
36373;SDS011;22399;51.346;12.372;2023-02-28T04:20:03;3.85;;;2.03;;
36373;SDS011;22399;51.346;12.372;2023-02-28T04:22:36;6.70;;;1.65;;
36373;SDS011;22399;51.346;12.372;2023-02-28T04:25:06;3.72;;;2.10;;
36373;SDS011;22399;51.346;12.372;2023-02-28T04:27:35;7.57;;;2.08;;
36373;SDS011;22399;51.346;12.372;2023-02-28T04:30:03;7.03;;;1.90;;
36373;SDS011;22399;51.346;12.372;2023-02-28T04:32:32;7.85;;;2.13;;
36373;SDS011;22399;51.346;12.372;2023-02-28T04:35:01;4.32;;;2.25;;
36373;SDS011;22399;51.346;12.372;2023-02-28T04:37:30;5.18;;;1.55;;
36373;SDS011;22399;51.346;12.372;2023-02-28T04:40:02;4.30;;;1.60;;
36373;SDS011;22399;51.346;12.372;2023-02-28T04:42:31;4.00;;;1.48;;
36373;SDS011;22399;51.346;12.372;2023-02-28T04:45:02;9.95;;;2.17;;
36373;SDS011;22399;51.346;12.372;2023-02-28T04:47:31;9.90;;;1.88;;
36373;SDS011;22399;51.346;12.372;2023-02-28T04:49:59;10.65;;;2.10;;
36373;SDS011;22399;51.346;12.372;2023-02-28T04:52:28;4.53;;;1.92;;
36373;SDS011;22399;51.346;12.372;2023-02-28T04:54:56;6.00;;;2.08;;
36373;SDS011;22399;51.346;12.372;2023-02-28T04:57:26;10.32;;;1.75;;
36373;SDS011;22399;51.346;12.372;2023-02-28T04:59:56;7.35;;;1.92;;
36373;SDS011;22399;51.346;12.372;2023-02-28T05:02:24;12.90;;;2.47;;
36373;SDS011;22399;51.346;12.372;2023-02-28T05:04:53;2.58;;;0.98;;
36373;SDS011;22399;51.346;12.372;2023-02-28T05:07:21;5.47;;;2.10;;
36373;SDS011;22399;51.346;12.372;2023-02-28T05:09:49;3.83;;;2.28;;
36373;SDS011;22399;51.346;12.372;2023-02-28T05:12:17;4.88;;;1.70;;
36373;SDS011;22399;51.346;12.372;2023-02-28T05:14:47;5.28;;;1.83;;
36373;SDS011;22399;51.346;12.372;2023-02-28T05:17:16;12.77;;;2.35;;
36373;SDS011;22399;51.346;12.372;2023-02-28T05:19:44;6.45;;;2.63;;
36373;SDS011;22399;51.346;12.372;2023-02-28T05:22:13;7.95;;;2.50;;
36373;SDS011;22399;51.346;12.372;2023-02-28T05:24:43;2.17;;;1.38;;
36373;SDS011;22399;51.346;12.372;2023-02-28T05:27:11;12.80;;;2.15;;
36373;SDS011;22399;51.346;12.372;2023-02-28T05:29:40;4.47;;;2.08;;
36373;SDS011;22399;51.346;12.372;2023-02-28T05:32:11;7.45;;;2.17;;
36373;SDS011;22399;51.346;12.372;2023-02-28T05:34:40;7.72;;;2.17;;
36373;SDS011;22399;51.346;12.372;2023-02-28T05:37:10;6.07;;;2.83;;
36373;SDS011;22399;51.346;12.372;2023-02-28T05:39:40;7.05;;;2.28;;
36373;SDS011;22399;51.346;12.372;2023-02-28T05:42:09;10.38;;;1.63;;
36373;SDS011;22399;51.346;12.372;2023-02-28T05:44:37;6.95;;;2.35;;
36373;SDS011;22399;51.346;12.372;2023-02-28T05:47:06;4.15;;;1.58;;
36373;SDS011;22399;51.346;12.372;2023-02-28T05:49:36;5.70;;;2.30;;
36373;SDS011;22399;51.346;12.372;2023-02-28T05:52:04;3.67;;;1.75;;
36373;SDS011;22399;51.346;12.372;2023-02-28T05:54:33;6.78;;;2.75;;
36373;SDS011;22399;51.346;12.372;2023-02-28T05:57:01;17.70;;;2.10;;
36373;SDS011;22399;51.346;12.372;2023-02-28T05:59:38;8.27;;;2.42;;
36373;SDS011;22399;51.346;12.372;2023-02-28T06:02:06;4.85;;;1.83;;
36373;SDS011;22399;51.346;12.372;2023-02-28T06:04:41;6.25;;;2.00;;
36373;SDS011;22399;51.346;12.372;2023-02-28T06:07:09;5.15;;;1.80;;
36373;SDS011;22399;51.346;12.372;2023-02-28T06:09:38;5.00;;;2.13;;
36373;SDS011;22399;51.346;12.372;2023-02-28T06:12:06;5.85;;;2.45;;
36373;SDS011;22399;51.346;12.372;2023-02-28T06:14:36;6.50;;;1.88;;
36373;SDS011;22399;51.346;12.372;2023-02-28T06:17:05;11.77;;;2.15;;
36373;SDS011;22399;51.346;12.372;2023-02-28T06:19:33;9.65;;;2.10;;
36373;SDS011;22399;51.346;12.372;2023-02-28T06:22:04;12.88;;;3.20;;
36373;SDS011;22399;51.346;12.372;2023-02-28T06:24:32;17.35;;;3.08;;
36373;SDS011;22399;51.346;12.372;2023-02-28T06:27:01;12.45;;;3.13;;
36373;SDS011;22399;51.346;12.372;2023-02-28T06:29:31;7.70;;;2.13;;
36373;SDS011;22399;51.346;12.372;2023-02-28T06:32:00;13.88;;;2.33;;
36373;SDS011;22399;51.346;12.372;2023-02-28T06:34:29;7.38;;;2.72;;
36373;SDS011;22399;51.346;12.372;2023-02-28T06:36:57;9.35;;;2.63;;
36373;SDS011;22399;51.346;12.372;2023-02-28T06:39:30;4.55;;;2.20;;
36373;SDS011;22399;51.346;12.372;2023-02-28T06:41:59;5.47;;;2.00;;
36373;SDS011;22399;51.346;12.372;2023-02-28T06:44:27;11.38;;;2.55;;
36373;SDS011;22399;51.346;12.372;2023-02-28T06:47:01;9.27;;;2.15;;
36373;SDS011;22399;51.346;12.372;2023-02-28T06:49:31;17.33;;;3.67;;
36373;SDS011;22399;51.346;12.372;2023-02-28T06:52:01;9.70;;;2.97;;
36373;SDS011;22399;51.346;12.372;2023-02-28T06:54:31;6.28;;;2.78;;
36373;SDS011;22399;51.346;12.372;2023-02-28T06:56:59;4.25;;;1.70;;
36373;SDS011;22399;51.346;12.372;2023-02-28T06:59:27;5.63;;;2.25;;
36373;SDS011;22399;51.346;12.372;2023-02-28T07:01:56;9.80;;;2.35;;
36373;SDS011;22399;51.346;12.372;2023-02-28T07:04:25;6.38;;;3.03;;
36373;SDS011;22399;51.346;12.372;2023-02-28T07:06:54;5.72;;;2.28;;
36373;SDS011;22399;51.346;12.372;2023-02-28T07:09:23;9.02;;;2.30;;
36373;SDS011;22399;51.346;12.372;2023-02-28T07:11:58;10.25;;;2.35;;
36373;SDS011;22399;51.346;12.372;2023-02-28T07:14:26;4.47;;;2.33;;
36373;SDS011;22399;51.346;12.372;2023-02-28T07:16:55;9.55;;;2.75;;
36373;SDS011;22399;51.346;12.372;2023-02-28T07:19:23;7.13;;;2.78;;
36373;SDS011;22399;51.346;12.372;2023-02-28T07:21:52;18.67;;;3.05;;
36373;SDS011;22399;51.346;12.372;2023-02-28T07:24:21;12.75;;;3.05;;
36373;SDS011;22399;51.346;12.372;2023-02-28T07:26:52;7.70;;;2.42;;
36373;SDS011;22399;51.346;12.372;2023-02-28T07:29:21;4.07;;;1.45;;
36373;SDS011;22399;51.346;12.372;2023-02-28T07:31:50;7.18;;;2.83;;
36373;SDS011;22399;51.346;12.372;2023-02-28T07:34:19;5.97;;;2.22;;
36373;SDS011;22399;51.346;12.372;2023-02-28T07:36:48;15.20;;;2.35;;
36373;SDS011;22399;51.346;12.372;2023-02-28T07:39:20;5.07;;;2.20;;
36373;SDS011;22399;51.346;12.372;2023-02-28T07:41:49;6.68;;;2.63;;
36373;SDS011;22399;51.346;12.372;2023-02-28T07:44:23;15.70;;;2.72;;
36373;SDS011;22399;51.346;12.372;2023-02-28T07:46:51;13.43;;;2.53;;
36373;SDS011;22399;51.346;12.372;2023-02-28T07:49:20;10.20;;;2.60;;
36373;SDS011;22399;51.346;12.372;2023-02-28T07:51:48;8.68;;;3.08;;
36373;SDS011;22399;51.346;12.372;2023-02-28T07:54:17;9.38;;;2.72;;
36373;SDS011;22399;51.346;12.372;2023-02-28T07:56:45;5.88;;;2.58;;
36373;SDS011;22399;51.346;12.372;2023-02-28T07:59:13;4.80;;;1.70;;
36373;SDS011;22399;51.346;12.372;2023-02-28T08:01:43;7.05;;;1.90;;
36373;SDS011;22399;51.346;12.372;2023-02-28T08:04:12;8.57;;;2.20;;
36373;SDS011;22399;51.346;12.372;2023-02-28T08:06:45;9.50;;;2.83;;
36373;SDS011;22399;51.346;12.372;2023-02-28T08:09:14;11.10;;;2.85;;
36373;SDS011;22399;51.346;12.372;2023-02-28T08:11:42;9.32;;;2.20;;
36373;SDS011;22399;51.346;12.372;2023-02-28T08:14:11;5.82;;;2.85;;
36373;SDS011;22399;51.346;12.372;2023-02-28T08:16:39;5.75;;;2.15;;
36373;SDS011;22399;51.346;12.372;2023-02-28T08:19:11;7.68;;;1.92;;
36373;SDS011;22399;51.346;12.372;2023-02-28T08:21:39;8.75;;;2.50;;
36373;SDS011;22399;51.346;12.372;2023-02-28T08:24:07;5.65;;;2.58;;
36373;SDS011;22399;51.346;12.372;2023-02-28T08:26:36;5.47;;;2.05;;
36373;SDS011;22399;51.346;12.372;2023-02-28T08:29:04;9.70;;;2.20;;
36373;SDS011;22399;51.346;12.372;2023-02-28T08:31:32;7.97;;;1.90;;
36373;SDS011;22399;51.346;12.372;2023-02-28T08:34:04;5.25;;;1.98;;
36373;SDS011;22399;51.346;12.372;2023-02-28T08:36:34;5.57;;;2.05;;
36373;SDS011;22399;51.346;12.372;2023-02-28T08:39:03;3.25;;;1.70;;
36373;SDS011;22399;51.346;12.372;2023-02-28T08:41:32;7.72;;;2.42;;
36373;SDS011;22399;51.346;12.372;2023-02-28T08:44:01;6.55;;;2.05;;
36373;SDS011;22399;51.346;12.372;2023-02-28T08:46:29;3.53;;;1.75;;
36373;SDS011;22399;51.346;12.372;2023-02-28T08:48:58;5.53;;;1.85;;
36373;SDS011;22399;51.346;12.372;2023-02-28T08:51:28;6.07;;;1.48;;
36373;SDS011;22399;51.346;12.372;2023-02-28T08:53:59;4.28;;;2.05;;
36373;SDS011;22399;51.346;12.372;2023-02-28T08:56:28;6.32;;;1.70;;
36373;SDS011;22399;51.346;12.372;2023-02-28T08:58:57;7.90;;;1.90;;
36373;SDS011;22399;51.346;12.372;2023-02-28T09:01:26;6.28;;;1.63;;
36373;SDS011;22399;51.346;12.372;2023-02-28T09:03:56;6.40;;;2.03;;
36373;SDS011;22399;51.346;12.372;2023-02-28T09:06:26;6.07;;;1.75;;
36373;SDS011;22399;51.346;12.372;2023-02-28T09:08:56;9.57;;;2.17;;
36373;SDS011;22399;51.346;12.372;2023-02-28T09:11:27;8.52;;;2.13;;
36373;SDS011;22399;51.346;12.372;2023-02-28T09:13:57;6.90;;;2.15;;
36373;SDS011;22399;51.346;12.372;2023-02-28T09:16:26;5.30;;;1.98;;
36373;SDS011;22399;51.346;12.372;2023-02-28T09:18:55;6.65;;;1.98;;
36373;SDS011;22399;51.346;12.372;2023-02-28T09:21:23;7.38;;;2.53;;
36373;SDS011;22399;51.346;12.372;2023-02-28T09:23:52;4.65;;;1.67;;
36373;SDS011;22399;51.346;12.372;2023-02-28T09:26:21;6.32;;;2.05;;
36373;SDS011;22399;51.346;12.372;2023-02-28T09:28:52;3.97;;;1.92;;
36373;SDS011;22399;51.346;12.372;2023-02-28T09:31:22;4.70;;;1.35;;
36373;SDS011;22399;51.346;12.372;2023-02-28T09:33:52;9.38;;;1.88;;
36373;SDS011;22399;51.346;12.372;2023-02-28T09:36:22;8.48;;;1.88;;
36373;SDS011;22399;51.346;12.372;2023-02-28T09:39:07;10.80;;;2.63;;
36373;SDS011;22399;51.346;12.372;2023-02-28T09:41:37;5.57;;;1.85;;
36373;SDS011;22399;51.346;12.372;2023-02-28T09:44:15;4.55;;;1.95;;
36373;SDS011;22399;51.346;12.372;2023-02-28T09:46:48;7.47;;;1.52;;
36373;SDS011;22399;51.346;12.372;2023-02-28T09:49:22;3.70;;;1.88;;
36373;SDS011;22399;51.346;12.372;2023-02-28T09:51:55;5.90;;;1.50;;
36373;SDS011;22399;51.346;12.372;2023-02-28T09:54:28;5.68;;;1.77;;
36373;SDS011;22399;51.346;12.372;2023-02-28T09:56:59;11.45;;;2.08;;
36373;SDS011;22399;51.346;12.372;2023-02-28T09:59:39;4.35;;;2.05;;
36373;SDS011;22399;51.346;12.372;2023-02-28T10:02:19;4.57;;;1.98;;
36373;SDS011;22399;51.346;12.372;2023-02-28T10:04:59;7.10;;;2.42;;
36373;SDS011;22399;51.346;12.372;2023-02-28T10:07:37;5.53;;;2.10;;
36373;SDS011;22399;51.346;12.372;2023-02-28T10:10:20;3.92;;;1.80;;
36373;SDS011;22399;51.346;12.372;2023-02-28T10:12:52;6.28;;;1.58;;
36373;SDS011;22399;51.346;12.372;2023-02-28T10:15:25;4.18;;;2.05;;
36373;SDS011;22399;51.346;12.372;2023-02-28T10:17:58;4.75;;;1.88;;
36373;SDS011;22399;51.346;12.372;2023-02-28T10:20:35;6.43;;;2.80;;
36373;SDS011;22399;51.346;12.372;2023-02-28T10:23:09;3.22;;;1.75;;
36373;SDS011;22399;51.346;12.372;2023-02-28T10:25:44;2.63;;;1.75;;
36373;SDS011;22399;51.346;12.372;2023-02-28T10:28:17;6.72;;;2.38;;
36373;SDS011;22399;51.346;12.372;2023-02-28T10:30:48;4.05;;;1.80;;
36373;SDS011;22399;51.346;12.372;2023-02-28T10:33:19;5.68;;;2.20;;
36373;SDS011;22399;51.346;12.372;2023-02-28T10:35:51;11.43;;;2.05;;
36373;SDS011;22399;51.346;12.372;2023-02-28T10:38:20;6.80;;;1.77;;
36373;SDS011;22399;51.346;12.372;2023-02-28T10:40:50;6.05;;;2.60;;
36373;SDS011;22399;51.346;12.372;2023-02-28T10:43:30;5.40;;;2.13;;
36373;SDS011;22399;51.346;12.372;2023-02-28T10:46:01;6.35;;;1.92;;
36373;SDS011;22399;51.346;12.372;2023-02-28T10:48:36;6.55;;;2.17;;
36373;SDS011;22399;51.346;12.372;2023-02-28T10:51:05;6.30;;;2.25;;
36373;SDS011;22399;51.346;12.372;2023-02-28T10:53:37;6.90;;;2.45;;
36373;SDS011;22399;51.346;12.372;2023-02-28T10:56:27;12.75;;;2.25;;
36373;SDS011;22399;51.346;12.372;2023-02-28T10:58:57;5.40;;;2.15;;
36373;SDS011;22399;51.346;12.372;2023-02-28T11:01:39;9.20;;;2.55;;
36373;SDS011;22399;51.346;12.372;2023-02-28T11:04:16;11.63;;;2.15;;
36373;SDS011;22399;51.346;12.372;2023-02-28T11:06:46;6.63;;;2.55;;
36373;SDS011;22399;51.346;12.372;2023-02-28T11:09:18;5.68;;;2.28;;
36373;SDS011;22399;51.346;12.372;2023-02-28T11:14:20;4.95;;;1.88;;
36373;SDS011;22399;51.346;12.372;2023-02-28T11:16:51;12.73;;;1.95;;
36373;SDS011;22399;51.346;12.372;2023-02-28T11:19:20;17.83;;;2.42;;
36373;SDS011;22399;51.346;12.372;2023-02-28T11:21:54;6.13;;;2.22;;
36373;SDS011;22399;51.346;12.372;2023-02-28T11:24:26;7.20;;;2.25;;
36373;SDS011;22399;51.346;12.372;2023-02-28T11:26:57;8.85;;;2.33;;
36373;SDS011;22399;51.346;12.372;2023-02-28T11:29:26;12.88;;;2.28;;
36373;SDS011;22399;51.346;12.372;2023-02-28T11:32:04;9.45;;;2.88;;
36373;SDS011;22399;51.346;12.372;2023-02-28T11:34:39;8.20;;;2.60;;
36373;SDS011;22399;51.346;12.372;2023-02-28T11:37:11;4.53;;;2.20;;
36373;SDS011;22399;51.346;12.372;2023-02-28T11:39:41;5.22;;;2.65;;
36373;SDS011;22399;51.346;12.372;2023-02-28T11:42:27;18.17;;;2.60;;
36373;SDS011;22399;51.346;12.372;2023-02-28T11:45:16;7.32;;;2.83;;
36373;SDS011;22399;51.346;12.372;2023-02-28T11:47:55;7.78;;;2.05;;
36373;SDS011;22399;51.346;12.372;2023-02-28T11:50:40;5.57;;;2.65;;
36373;SDS011;22399;51.346;12.372;2023-02-28T11:53:17;5.95;;;2.63;;
36373;SDS011;22399;51.346;12.372;2023-02-28T11:55:54;7.03;;;2.35;;
36373;SDS011;22399;51.346;12.372;2023-02-28T11:58:33;9.68;;;2.22;;
36373;SDS011;22399;51.346;12.372;2023-02-28T12:01:28;9.27;;;2.85;;
36373;SDS011;22399;51.346;12.372;2023-02-28T12:04:17;9.25;;;2.55;;
36373;SDS011;22399;51.346;12.372;2023-02-28T12:06:52;7.20;;;2.55;;
36373;SDS011;22399;51.346;12.372;2023-02-28T12:09:40;6.53;;;3.03;;
36373;SDS011;22399;51.346;12.372;2023-02-28T12:12:22;7.60;;;2.88;;
36373;SDS011;22399;51.346;12.372;2023-02-28T12:15:14;7.03;;;3.30;;
36373;SDS011;22399;51.346;12.372;2023-02-28T12:17:55;9.93;;;2.38;;
36373;SDS011;22399;51.346;12.372;2023-02-28T12:20:38;10.23;;;3.22;;
36373;SDS011;22399;51.346;12.372;2023-02-28T12:23:27;6.97;;;2.83;;
36373;SDS011;22399;51.346;12.372;2023-02-28T12:26:19;10.13;;;2.83;;
36373;SDS011;22399;51.346;12.372;2023-02-28T12:28:57;10.00;;;2.67;;
36373;SDS011;22399;51.346;12.372;2023-02-28T12:31:30;5.40;;;2.53;;
36373;SDS011;22399;51.346;12.372;2023-02-28T12:34:04;11.63;;;3.33;;
36373;SDS011;22399;51.346;12.372;2023-02-28T12:36:38;10.43;;;3.15;;
36373;SDS011;22399;51.346;12.372;2023-02-28T12:39:08;10.88;;;3.22;;
36373;SDS011;22399;51.346;12.372;2023-02-28T12:41:43;8.50;;;3.05;;
36373;SDS011;22399;51.346;12.372;2023-02-28T12:44:15;8.63;;;3.53;;
36373;SDS011;22399;51.346;12.372;2023-02-28T12:46:48;5.57;;;3.28;;
36373;SDS011;22399;51.346;12.372;2023-02-28T12:49:19;15.23;;;3.67;;
36373;SDS011;22399;51.346;12.372;2023-02-28T12:51:53;9.77;;;3.00;;
36373;SDS011;22399;51.346;12.372;2023-02-28T12:54:23;13.48;;;3.53;;
36373;SDS011;22399;51.346;12.372;2023-02-28T12:56:58;7.88;;;3.08;;
36373;SDS011;22399;51.346;12.372;2023-02-28T12:59:35;9.95;;;3.15;;
36373;SDS011;22399;51.346;12.372;2023-02-28T13:05:29;7.85;;;3.50;;
36373;SDS011;22399;51.346;12.372;2023-02-28T13:08:26;12.38;;;4.63;;
36373;SDS011;22399;51.346;12.372;2023-02-28T13:11:24;9.13;;;3.47;;
36373;SDS011;22399;51.346;12.372;2023-02-28T13:13:58;9.95;;;2.72;;
36373;SDS011;22399;51.346;12.372;2023-02-28T13:16:28;6.72;;;3.45;;
36373;SDS011;22399;51.346;12.372;2023-02-28T13:19:19;9.95;;;3.38;;
36373;SDS011;22399;51.346;12.372;2023-02-28T13:21:49;11.00;;;3.10;;
36373;SDS011;22399;51.346;12.372;2023-02-28T13:33:24;7.82;;;3.45;;
36373;SDS011;22399;51.346;12.372;2023-02-28T13:36:08;10.95;;;3.65;;
36373;SDS011;22399;51.346;12.372;2023-02-28T13:38:50;7.38;;;3.50;;
36373;SDS011;22399;51.346;12.372;2023-02-28T13:44:15;13.15;;;3.78;;
36373;SDS011;22399;51.346;12.372;2023-02-28T13:49:52;7.80;;;3.20;;
36373;SDS011;22399;51.346;12.372;2023-02-28T13:52:23;8.98;;;3.35;;
36373;SDS011;22399;51.346;12.372;2023-02-28T13:55:02;8.30;;;3.30;;
36373;SDS011;22399;51.346;12.372;2023-02-28T13:57:52;9.25;;;3.22;;
36373;SDS011;22399;51.346;12.372;2023-02-28T14:00:43;6.68;;;3.60;;
36373;SDS011;22399;51.346;12.372;2023-02-28T14:03:31;8.73;;;3.05;;
36373;SDS011;22399;51.346;12.372;2023-02-28T14:06:25;11.43;;;3.88;;
36373;SDS011;22399;51.346;12.372;2023-02-28T14:08:58;12.27;;;3.60;;
36373;SDS011;22399;51.346;12.372;2023-02-28T14:11:31;5.72;;;3.33;;
36373;SDS011;22399;51.346;12.372;2023-02-28T14:14:02;10.02;;;2.83;;
36373;SDS011;22399;51.346;12.372;2023-02-28T14:16:37;9.10;;;3.40;;
36373;SDS011;22399;51.346;12.372;2023-02-28T14:19:12;10.07;;;3.75;;
36373;SDS011;22399;51.346;12.372;2023-02-28T14:21:51;10.43;;;3.70;;
36373;SDS011;22399;51.346;12.372;2023-02-28T14:24:38;11.93;;;3.65;;
36373;SDS011;22399;51.346;12.372;2023-02-28T14:27:28;10.48;;;3.20;;
36373;SDS011;22399;51.346;12.372;2023-02-28T14:33:13;8.48;;;3.63;;
36373;SDS011;22399;51.346;12.372;2023-02-28T14:36:12;14.77;;;4.22;;
36373;SDS011;22399;51.346;12.372;2023-02-28T14:38:46;6.50;;;3.35;;
36373;SDS011;22399;51.346;12.372;2023-02-28T14:41:21;8.18;;;3.55;;
36373;SDS011;22399;51.346;12.372;2023-02-28T14:43:51;8.70;;;3.20;;
36373;SDS011;22399;51.346;12.372;2023-02-28T14:46:22;20.92;;;4.90;;
36373;SDS011;22399;51.346;12.372;2023-02-28T14:48:56;13.38;;;3.83;;
36373;SDS011;22399;51.346;12.372;2023-02-28T14:51:26;11.73;;;4.28;;
36373;SDS011;22399;51.346;12.372;2023-02-28T14:53:56;15.27;;;4.05;;
36373;SDS011;22399;51.346;12.372;2023-02-28T14:56:28;6.80;;;3.25;;
36373;SDS011;22399;51.346;12.372;2023-02-28T14:59:01;8.23;;;3.72;;
36373;SDS011;22399;51.346;12.372;2023-02-28T15:01:30;6.68;;;3.50;;
36373;SDS011;22399;51.346;12.372;2023-02-28T15:04:03;10.65;;;4.13;;
36373;SDS011;22399;51.346;12.372;2023-02-28T15:06:33;5.97;;;3.35;;
36373;SDS011;22399;51.346;12.372;2023-02-28T15:09:13;8.82;;;3.83;;
36373;SDS011;22399;51.346;12.372;2023-02-28T15:11:45;9.88;;;3.78;;
36373;SDS011;22399;51.346;12.372;2023-02-28T15:14:19;10.65;;;3.58;;
36373;SDS011;22399;51.346;12.372;2023-02-28T15:16:51;11.50;;;3.53;;
36373;SDS011;22399;51.346;12.372;2023-02-28T15:19:26;9.82;;;3.25;;
36373;SDS011;22399;51.346;12.372;2023-02-28T15:21:56;17.98;;;4.30;;
36373;SDS011;22399;51.346;12.372;2023-02-28T15:24:31;6.63;;;3.72;;
36373;SDS011;22399;51.346;12.372;2023-02-28T15:27:05;10.80;;;3.47;;
36373;SDS011;22399;51.346;12.372;2023-02-28T15:29:39;23.38;;;4.30;;
36373;SDS011;22399;51.346;12.372;2023-02-28T15:32:21;11.48;;;4.32;;
36373;SDS011;22399;51.346;12.372;2023-02-28T15:34:55;12.55;;;3.70;;
36373;SDS011;22399;51.346;12.372;2023-02-28T15:37:28;7.22;;;3.15;;
36373;SDS011;22399;51.346;12.372;2023-02-28T15:40:15;8.68;;;3.50;;